Time;durP1;ratioP1;P1;durP2;ratioP2;P2;SDS_P1;SDS_P2;PMS_P1;PMS_P2;Temp;Humidity;BMP_temperature;BMP_pressure;BME280_temperature;BME280_humidity;BME280_pressure;Samples;Min_cycle;Max_cycle;Signal;HPM_P1;HPM_P2
2022/01/23 00:01:46;;;;;;;6.38;3.63;;;17.30;59.40;;;;;;5108368;27;45402;-77
2022/01/23 00:04:15;;;;;;;5.63;3.30;;;17.30;59.20;;;;;;5105322;27;45278;-77
2022/01/23 00:06:44;;;;;;;5.82;3.75;;;17.30;58.90;;;;;;5108534;27;45336;-78
2022/01/23 00:09:11;;;;;;;6.35;3.90;;;17.30;59.30;;;;;;5105596;27;45464;-78
2022/01/23 00:11:46;;;;;;;4.38;3.45;;;17.30;58.20;;;;;;5110557;27;45279;-77
2022/01/23 00:19:57;;;;;;;4.05;3.10;;;17.20;56.40;;;;;;5045114;28;46521;-76
2022/01/23 00:22:33;;;;;;;5.00;2.95;;;17.30;56.30;;;;;;5094263;27;45436;-77
2022/01/23 00:30:30;;;;;;;5.82;3.70;;;17.30;56.70;;;;;;5108266;27;45780;-77
2022/01/23 00:32:59;;;;;;;5.50;3.17;;;17.30;58.50;;;;;;5109121;27;45172;-77
2022/01/23 00:35:29;;;;;;;4.82;3.70;;;17.30;58.60;;;;;;5108577;27;45364;-78
2022/01/23 00:37:56;;;;;;;5.80;3.60;;;17.30;59.00;;;;;;5113357;27;45325;-77
2022/01/23 00:40:25;;;;;;;5.35;3.50;;;17.30;58.90;;;;;;5105602;27;46430;-77
2022/01/23 00:42:53;;;;;;;3.30;2.97;;;17.30;58.60;;;;;;5109616;27;46139;-77
2022/01/23 00:45:28;;;;;;;4.22;3.35;;;17.30;57.80;;;;;;5108101;27;45416;-76
2022/01/23 00:47:59;;;;;;;4.10;3.42;;;17.30;57.20;;;;;;5101299;27;45306;-77
2022/01/23 00:50:29;;;;;;;3.78;3.22;;;17.30;56.40;;;;;;5105928;27;47131;-77
2022/01/23 00:52:56;;;;;;;4.63;3.05;;;17.30;56.10;;;;;;5115066;27;46404;-77
2022/01/23 00:55:23;;;;;;;3.88;2.90;;;17.30;55.90;;;;;;5118595;27;45349;-76
2022/01/23 00:57:50;;;;;;;3.15;2.85;;;17.30;56.70;;;;;;5116243;27;45349;-77
2022/01/23 01:00:18;;;;;;;4.18;3.22;;;17.30;57.90;;;;;;5107664;27;47045;-77
2022/01/23 01:02:45;;;;;;;4.32;3.45;;;17.20;57.70;;;;;;5107650;27;45163;-77
2022/01/23 01:05:12;;;;;;;3.65;3.05;;;17.20;57.30;;;;;;5108919;27;45376;-77
2022/01/23 01:07:41;;;;;;;4.22;3.13;;;17.20;57.90;;;;;;5105273;27;45570;-77
2022/01/23 01:10:14;;;;;;;5.30;3.40;;;17.20;59.50;;;;;;5106350;27;45365;-77
2022/01/23 01:12:43;;;;;;;4.00;3.20;;;17.20;59.20;;;;;;5108247;27;45322;-77
2022/01/23 01:31:58;;;;;;;5.22;3.60;;;17.20;57.60;;;;;;5102100;27;45307;-76
2022/01/23 01:34:33;;;;;;;4.07;3.55;;;17.20;57.00;;;;;;5090871;27;45770;-76
2022/01/23 01:37:01;;;;;;;4.03;3.20;;;17.20;57.00;;;;;;5116978;27;45341;-77
2022/01/23 01:39:30;;;;;;;4.55;2.85;;;17.20;56.60;;;;;;5107713;27;45305;-76
2022/01/23 01:41:58;;;;;;;3.80;3.28;;;17.20;57.50;;;;;;5117638;27;47713;-77
2022/01/23 01:44:26;;;;;;;4.43;3.33;;;17.20;57.00;;;;;;5117746;27;45971;-76
2022/01/23 01:46:53;;;;;;;4.85;3.42;;;17.20;58.80;;;;;;5118816;27;45403;-76
2022/01/23 01:49:26;;;;;;;4.47;3.38;;;17.30;58.90;;;;;;5122730;27;46260;-75
2022/01/23 01:51:54;;;;;;;3.75;3.00;;;17.30;58.00;;;;;;5118617;27;47975;-76
2022/01/23 01:54:23;;;;;;;4.82;3.47;;;17.30;58.60;;;;;;5111674;27;45501;-77
2022/01/23 01:56:53;;;;;;;4.75;3.25;;;17.30;58.70;;;;;;5115873;27;45322;-76
2022/01/23 01:59:47;;;;;;;4.88;3.25;;;17.30;58.30;;;;;;5115743;27;45568;-76
2022/01/23 02:10:29;;;;;;;3.25;2.78;;;17.20;56.60;;;;;;5121575;27;45405;-76
2022/01/23 02:13:09;;;;;;;3.50;3.20;;;17.30;56.30;;;;;;5107833;27;48093;-76
2022/01/23 02:22:27;;;;;;;4.38;3.30;;;17.20;57.20;;;;;;5076774;27;45305;-76
2022/01/23 02:24:47;;;;;;;4.13;3.33;;;17.30;57.40;;;;;;5079765;27;45563;-75
2022/01/23 02:52:10;;;;;;;4.00;3.10;;;17.30;56.20;;;;;;5097724;27;45400;-75
2022/01/23 02:54:52;;;;;;;4.30;3.45;;;17.30;55.30;;;;;;5113211;27;45315;-76
2022/01/23 02:57:32;;;;;;;4.60;3.35;;;17.30;55.40;;;;;;5118046;27;46392;-75
2022/01/23 02:59:58;;;;;;;4.25;3.53;;;17.30;55.90;;;;;;5106710;27;45286;-75
2022/01/23 03:02:34;;;;;;;4.70;4.03;;;17.30;57.00;;;;;;5114654;27;45315;-75
2022/01/23 03:05:02;;;;;;;5.22;3.85;;;17.30;57.00;;;;;;5112055;27;45489;-75
2022/01/23 03:07:50;;;;;;;6.82;3.85;;;17.30;57.20;;;;;;5105480;27;47563;-75
2022/01/23 03:10:24;;;;;;;4.82;3.70;;;17.30;57.70;;;;;;5122477;27;45367;-75
2022/01/23 03:16:09;;;;;;;4.95;3.60;;;17.30;57.20;;;;;;5104545;27;45198;-76
2022/01/23 03:24:15;;;;;;;4.97;3.45;;;17.30;55.00;;;;;;5090419;28;45184;-75
2022/01/23 03:26:56;;;;;;;4.85;3.72;;;17.30;55.80;;;;;;5128971;27;45206;-75
2022/01/23 03:29:25;;;;;;;5.35;3.88;;;17.30;55.40;;;;;;5129034;27;46755;-74
2022/01/23 03:32:13;;;;;;;4.07;3.25;;;17.30;56.60;;;;;;5107161;27;45345;-76
2022/01/23 03:34:40;;;;;;;4.93;3.63;;;17.30;55.40;;;;;;5112548;27;45153;-76
2022/01/23 03:37:07;;;;;;;4.25;3.47;;;17.30;55.40;;;;;;5114230;27;45143;-75
2022/01/23 03:39:34;;;;;;;5.18;3.83;;;17.30;55.10;;;;;;5114223;27;46521;-76
2022/01/23 03:42:03;;;;;;;5.70;4.00;;;17.30;56.80;;;;;;5119250;27;45708;-75
2022/01/23 03:44:30;;;;;;;6.13;3.97;;;17.20;56.60;;;;;;5106847;27;45307;-75
2022/01/23 03:47:15;;;;;;;5.30;4.03;;;17.30;57.00;;;;;;5107448;27;45564;-75
2022/01/23 03:49:41;;;;;;;5.68;4.13;;;17.30;56.90;;;;;;5106485;27;46696;-75
2022/01/23 03:52:10;;;;;;;6.10;4.28;;;17.30;56.90;;;;;;5100296;27;45295;-75
2022/01/23 03:54:37;;;;;;;5.82;3.80;;;17.30;57.30;;;;;;5122136;27;45499;-75
2022/01/23 03:57:08;;;;;;;5.07;3.70;;;17.30;56.50;;;;;;5130597;27;45210;-76
2022/01/23 03:59:36;;;;;;;4.90;3.90;;;17.30;55.00;;;;;;5121012;27;46756;-75
2022/01/23 04:02:04;;;;;;;5.15;3.88;;;17.30;55.30;;;;;;5109584;27;45298;-75
2022/01/23 04:04:40;;;;;;;4.85;3.78;;;17.30;55.50;;;;;;5108880;27;45503;-75
2022/01/23 04:07:09;;;;;;;5.35;3.80;;;17.30;55.00;;;;;;5108245;27;45297;-75
2022/01/23 04:09:37;;;;;;;6.38;3.88;;;17.30;55.10;;;;;;5107335;27;46567;-75
2022/01/23 04:12:09;;;;;;;4.53;3.70;;;17.30;55.00;;;;;;5089501;27;45483;-75
2022/01/23 04:14:40;;;;;;;5.57;3.83;;;17.30;54.90;;;;;;5112403;27;45383;-75
2022/01/23 04:33:47;;;;;;;6.93;4.38;;;17.30;56.00;;;;;;5107654;27;45375;-75
2022/01/23 05:01:02;;;;;;;5.60;4.10;;;17.30;55.20;;;;;;5107345;27;45659;-74
2022/01/23 05:06:22;;;;;;;5.75;3.70;;;17.30;56.20;;;;;;5103337;27;45597;-74
2022/01/23 05:08:50;;;;;;;5.35;3.88;;;17.30;55.30;;;;;;5088864;27;45181;-75
2022/01/23 05:11:17;;;;;;;5.18;4.03;;;17.30;55.60;;;;;;5088452;28;45380;-75
2022/01/23 05:13:44;;;;;;;4.50;3.50;;;17.40;55.40;;;;;;5107930;27;45464;-75
2022/01/23 05:16:13;;;;;;;5.35;3.60;;;17.30;54.60;;;;;;5299925;22;45940;-76
2022/01/23 05:18:40;;;;;;;4.55;3.55;;;17.30;54.70;;;;;;5086224;28;45327;-75
2022/01/23 05:21:24;;;;;;;4.90;3.67;;;17.30;54.90;;;;;;5075733;28;45474;-76
2022/01/23 05:23:51;;;;;;;4.65;3.67;;;17.30;54.70;;;;;;5067952;28;45708;-76
2022/01/23 05:26:18;;;;;;;4.38;3.45;;;17.30;54.60;;;;;;5066135;28;45214;-76
2022/01/23 05:28:45;;;;;;;5.53;3.80;;;17.30;54.80;;;;;;5063788;28;45479;-76
2022/01/23 05:31:13;;;;;;;6.07;3.75;;;17.30;54.70;;;;;;5065882;28;45320;-76
2022/01/23 05:33:39;;;;;;;5.28;3.92;;;17.30;54.40;;;;;;5067450;28;47828;-76
2022/01/23 05:36:07;;;;;;;4.15;3.30;;;17.30;54.50;;;;;;5066803;28;45184;-75
2022/01/23 05:38:34;;;;;;;4.60;3.78;;;17.30;54.50;;;;;;5066447;28;46744;-76
2022/01/23 05:41:01;;;;;;;4.15;3.15;;;17.30;54.10;;;;;;5066875;28;45375;-76
2022/01/23 05:43:28;;;;;;;5.43;3.38;;;17.30;54.30;;;;;;5066691;28;48374;-76
2022/01/23 05:45:55;;;;;;;6.28;3.67;;;17.30;54.00;;;;;;5058953;28;45246;-75
2022/01/23 05:48:23;;;;;;;5.50;3.60;;;17.40;54.40;;;;;;5062777;28;45235;-75
2022/01/23 05:50:50;;;;;;;5.10;3.63;;;17.40;54.60;;;;;;5062219;28;45372;-76
2022/01/23 05:53:17;;;;;;;4.68;3.50;;;17.40;54.40;;;;;;5064894;28;46465;-75
2022/01/23 05:55:44;;;;;;;4.70;3.50;;;17.40;54.30;;;;;;5075412;28;45259;-76
2022/01/23 05:58:11;;;;;;;4.05;3.65;;;17.40;54.40;;;;;;5067333;28;45163;-76
2022/01/23 06:00:38;;;;;;;4.85;3.55;;;17.30;54.60;;;;;;5066518;28;45381;-76
2022/01/23 06:03:05;;;;;;;3.88;3.15;;;17.30;54.40;;;;;;5066324;28;45495;-76
2022/01/23 06:05:33;;;;;;;5.95;3.97;;;17.30;54.20;;;;;;5064428;28;45551;-76
2022/01/23 06:08:00;;;;;;;4.72;3.75;;;17.30;54.30;;;;;;5066936;28;45472;-76
2022/01/23 06:10:28;;;;;;;6.03;3.88;;;17.30;54.40;;;;;;5067323;28;45298;-76
2022/01/23 06:12:55;;;;;;;4.10;3.20;;;17.30;54.20;;;;;;5066516;28;48693;-76
2022/01/23 06:15:22;;;;;;;5.20;3.63;;;17.30;54.40;;;;;;5068590;28;45238;-76
2022/01/23 06:17:49;;;;;;;4.70;3.90;;;17.30;54.40;;;;;;5069218;28;45231;-76
2022/01/23 06:20:16;;;;;;;5.88;3.78;;;17.30;55.30;;;;;;5069834;28;45246;-76
2022/01/23 06:22:46;;;;;;;5.18;3.63;;;17.30;55.10;;;;;;5078216;28;45273;-76
2022/01/23 06:25:15;;;;;;;5.25;3.45;;;17.40;55.40;;;;;;5083095;28;45238;-76
2022/01/23 06:27:43;;;;;;;5.75;4.05;;;17.40;55.30;;;;;;5069626;28;45271;-76
2022/01/23 06:30:10;;;;;;;4.80;3.60;;;17.40;55.20;;;;;;5060778;28;45648;-76
2022/01/23 06:32:37;;;;;;;4.32;3.50;;;17.40;54.80;;;;;;5069571;28;47928;-76
2022/01/23 06:35:05;;;;;;;5.05;3.80;;;17.40;54.00;;;;;;5065649;28;45354;-76
2022/01/23 06:37:32;;;;;;;6.40;3.78;;;17.30;53.90;;;;;;5055732;28;45335;-75
2022/01/23 06:40:00;;;;;;;5.25;3.85;;;17.30;54.70;;;;;;5067885;28;45507;-76
2022/01/23 06:42:26;;;;;;;5.03;3.97;;;17.20;54.90;;;;;;5069917;28;45342;-76
2022/01/23 06:44:53;;;;;;;5.20;3.75;;;17.20;54.40;;;;;;5069122;28;45199;-76
2022/01/23 06:47:20;;;;;;;5.25;3.50;;;17.20;54.80;;;;;;5067925;28;45108;-76
2022/01/23 06:49:47;;;;;;;5.63;3.80;;;17.20;54.70;;;;;;5069775;28;45441;-76
2022/01/23 06:52:14;;;;;;;6.22;3.67;;;17.20;54.50;;;;;;5070148;28;45186;-76
2022/01/23 06:54:41;;;;;;;4.45;3.55;;;17.20;54.80;;;;;;5072804;28;45344;-76
2022/01/23 06:57:09;;;;;;;5.72;4.05;;;17.20;55.40;;;;;;5068372;28;45349;-74
2022/01/23 06:59:36;;;;;;;7.00;4.28;;;17.20;55.90;;;;;;5069826;28;45252;-76
2022/01/23 07:02:04;;;;;;;5.30;4.13;;;17.20;55.80;;;;;;5068679;28;46207;-74
2022/01/23 07:04:31;;;;;;;5.03;4.13;;;17.20;56.00;;;;;;5066706;28;45337;-75
2022/01/23 07:06:58;;;;;;;7.22;3.88;;;17.20;55.90;;;;;;5065033;28;45522;-76
2022/01/23 07:09:24;;;;;;;6.20;4.30;;;17.30;55.90;;;;;;5068925;28;45388;-76
2022/01/23 07:11:51;;;;;;;4.93;3.80;;;17.30;55.80;;;;;;5068784;28;46656;-75
2022/01/23 07:14:20;;;;;;;5.40;4.10;;;17.30;54.40;;;;;;5067171;28;45322;-75
2022/01/23 07:16:47;;;;;;;4.63;3.63;;;17.20;55.00;;;;;;5069022;28;45163;-75
2022/01/23 07:19:14;;;;;;;5.45;3.45;;;17.20;54.80;;;;;;5057536;28;45300;-75
2022/01/23 07:21:41;;;;;;;5.15;3.80;;;17.20;54.60;;;;;;5068561;28;46972;-75
2022/01/23 07:24:08;;;;;;;5.45;3.45;;;17.20;54.60;;;;;;5067884;28;45294;-75
2022/01/23 07:26:35;;;;;;;3.83;3.33;;;17.20;54.60;;;;;;5068349;28;45516;-75
2022/01/23 07:29:04;;;;;;;5.25;3.70;;;17.20;54.50;;;;;;5065224;28;45275;-75
2022/01/23 07:31:55;;;;;;;8.30;3.80;;;17.20;54.40;;;;;;5064461;28;46633;-75
2022/01/23 07:34:21;;;;;;;4.72;3.67;;;17.20;54.30;;;;;;5049665;28;46526;-75
2022/01/23 07:36:48;;;;;;;5.45;3.42;;;17.20;54.30;;;;;;5057244;28;45333;-75
2022/01/23 07:39:15;;;;;;;4.97;3.75;;;17.20;54.00;;;;;;5066561;28;45378;-75
2022/01/23 07:41:42;;;;;;;7.30;3.72;;;17.20;54.30;;;;;;5068529;28;46271;-75
2022/01/23 07:44:09;;;;;;;5.15;3.55;;;17.30;54.20;;;;;;5068796;28;45296;-75
2022/01/23 07:46:37;;;;;;;5.53;3.30;;;17.30;54.70;;;;;;5064400;28;45215;-75
2022/01/23 07:49:04;;;;;;;4.82;3.88;;;17.30;54.60;;;;;;5063141;28;45332;-75
2022/01/23 07:51:31;;;;;;;5.35;3.58;;;17.30;53.70;;;;;;5065557;28;45302;-75
2022/01/23 07:53:58;;;;;;;5.28;3.60;;;17.30;53.70;;;;;;5082128;28;45456;-75
2022/01/23 07:56:24;;;;;;;5.47;3.60;;;17.30;53.80;;;;;;5066917;28;45226;-75
2022/01/23 07:58:51;;;;;;;3.80;3.28;;;17.30;54.00;;;;;;5067815;28;45410;-75
2022/01/23 08:01:18;;;;;;;4.65;3.33;;;17.30;53.80;;;;;;5067901;28;45484;-76
2022/01/23 08:03:46;;;;;;;8.00;3.50;;;17.20;53.60;;;;;;5064792;28;45282;-75
2022/01/23 08:06:13;;;;;;;5.35;3.20;;;17.20;53.60;;;;;;5063765;28;45529;-75
2022/01/23 08:08:41;;;;;;;8.73;3.55;;;17.30;53.70;;;;;;5065094;28;46191;-75
2022/01/23 08:11:08;;;;;;;5.25;3.30;;;17.20;53.60;;;;;;5066248;28;45577;-75
2022/01/23 08:13:35;;;;;;;4.45;3.47;;;17.20;53.60;;;;;;5068254;28;45398;-75
2022/01/23 08:16:02;;;;;;;4.45;3.17;;;17.20;53.50;;;;;;5065579;28;45458;-75
2022/01/23 08:18:28;;;;;;;4.43;3.30;;;17.30;53.70;;;;;;5065443;28;45599;-75
2022/01/23 08:20:57;;;;;;;4.75;3.80;;;17.30;53.90;;;;;;5066869;28;46641;-75
2022/01/23 08:23:23;;;;;;;3.75;2.97;;;17.30;53.60;;;;;;5068688;28;45396;-75
2022/01/23 08:25:50;;;;;;;5.57;3.95;;;17.30;53.20;;;;;;5066903;28;45347;-75
2022/01/23 08:28:18;;;;;;;4.68;3.30;;;17.30;53.70;;;;;;5067001;28;45278;-75
2022/01/23 08:30:44;;;;;;;3.88;3.10;;;17.20;53.90;;;;;;5067190;28;46376;-75
2022/01/23 08:33:11;;;;;;;5.00;3.35;;;17.20;53.90;;;;;;5061842;28;45295;-75
2022/01/23 08:35:40;;;;;;;4.85;3.60;;;17.20;54.10;;;;;;5063774;28;45480;-75
2022/01/23 08:38:09;;;;;;;7.47;3.80;;;17.20;54.30;;;;;;5065964;28;45539;-75
2022/01/23 08:40:47;;;;;;;4.78;3.25;;;17.10;54.20;;;;;;5062916;28;45487;-76
2022/01/23 08:43:16;;;;;;;5.63;3.70;;;17.10;54.40;;;;;;5062237;28;45676;-76
2022/01/23 08:45:44;;;;;;;5.05;3.55;;;17.10;54.10;;;;;;5061783;28;45377;-75
2022/01/23 08:48:11;;;;;;;6.13;3.83;;;17.10;55.30;;;;;;5061055;28;45357;-75
2022/01/23 08:50:38;;;;;;;5.30;3.80;;;17.20;54.30;;;;;;5066995;28;45464;-75
2022/01/23 08:53:05;;;;;;;7.70;3.67;;;17.10;54.00;;;;;;5065539;28;45997;-75
2022/01/23 08:55:34;;;;;;;4.20;3.13;;;17.20;54.20;;;;;;5065910;28;45244;-75
2022/01/23 08:58:01;;;;;;;6.57;3.60;;;17.20;54.80;;;;;;5054832;28;45605;-75
2022/01/23 09:00:28;;;;;;;5.00;3.58;;;17.20;54.60;;;;;;5055688;28;47865;-75
2022/01/23 09:02:55;;;;;;;4.53;3.30;;;17.20;54.00;;;;;;5065530;28;45310;-75
2022/01/23 09:05:23;;;;;;;5.13;3.47;;;17.20;54.00;;;;;;5058819;28;45461;-75
2022/01/23 09:07:50;;;;;;;4.05;3.50;;;17.20;53.90;;;;;;5058422;28;45484;-75
2022/01/23 09:10:24;;;;;;;4.25;3.45;;;17.20;54.50;;;;;;5060070;28;46706;-75
2022/01/23 09:13:06;;;;;;;4.22;3.13;;;17.20;53.50;;;;;;5058048;28;46073;-75
2022/01/23 09:15:34;;;;;;;4.38;3.15;;;17.20;53.80;;;;;;5057131;28;45526;-75
2022/01/23 09:18:00;;;;;;;4.90;3.55;;;17.20;54.00;;;;;;5057263;28;45353;-76
2022/01/23 09:20:28;;;;;;;4.20;3.42;;;17.20;54.00;;;;;;5060986;28;45643;-75
2022/01/23 09:22:55;;;;;;;5.55;3.70;;;17.20;53.80;;;;;;5059347;28;45194;-75
2022/01/23 09:25:22;;;;;;;5.05;3.83;;;17.20;53.80;;;;;;5065261;28;45376;-75
2022/01/23 09:27:49;;;;;;;5.45;3.50;;;17.20;53.80;;;;;;5058753;28;45464;-76
2022/01/23 09:30:19;;;;;;;5.43;3.58;;;17.20;53.90;;;;;;5061505;28;45234;-76
2022/01/23 09:32:47;;;;;;;4.32;3.40;;;17.20;53.80;;;;;;5059818;28;45366;-75
2022/01/23 09:35:14;;;;;;;4.45;3.70;;;17.20;54.00;;;;;;5057814;28;45377;-75
2022/01/23 09:37:41;;;;;;;5.68;3.47;;;17.20;55.50;;;;;;5057136;28;45557;-75
2022/01/23 09:40:10;;;;;;;5.40;3.78;;;17.20;54.40;;;;;;5056673;28;45248;-75
2022/01/23 09:42:44;;;;;;;5.38;3.83;;;17.20;54.80;;;;;;5057194;28;45204;-75
2022/01/23 09:45:13;;;;;;;4.82;3.10;;;17.20;54.90;;;;;;5058575;28;45293;-75
2022/01/23 09:47:43;;;;;;;5.57;3.88;;;17.20;54.60;;;;;;5061502;28;45348;-75
2022/01/23 09:50:12;;;;;;;6.18;3.47;;;17.20;54.30;;;;;;5054319;28;46673;-75
2022/01/23 09:52:40;;;;;;;4.55;3.35;;;17.20;54.00;;;;;;5056930;28;45834;-75
2022/01/23 09:55:11;;;;;;;4.28;3.13;;;17.20;54.30;;;;;;5062288;28;45278;-75
2022/01/23 09:57:41;;;;;;;4.90;3.47;;;17.20;54.20;;;;;;5065710;28;45139;-76
2022/01/23 10:00:12;;;;;;;6.63;4.05;;;17.20;54.10;;;;;;5059728;28;47969;-76
2022/01/23 10:02:39;;;;;;;5.32;3.55;;;17.20;54.40;;;;;;5064054;28;45143;-75
2022/01/23 10:05:09;;;;;;;4.65;3.45;;;17.20;54.20;;;;;;5063937;28;45564;-75
2022/01/23 10:07:38;;;;;;;5.63;3.47;;;17.20;54.00;;;;;;5065266;28;46256;-76
2022/01/23 10:10:12;;;;;;;5.03;3.58;;;17.20;54.10;;;;;;5066531;28;45287;-75
2022/01/23 10:12:42;;;;;;;6.05;3.70;;;17.20;54.00;;;;;;5062178;28;45345;-76
2022/01/23 10:15:10;;;;;;;4.88;3.53;;;17.20;54.00;;;;;;5066636;28;45258;-74
2022/01/23 10:17:37;;;;;;;5.43;3.95;;;17.20;54.00;;;;;;5065319;28;45347;-75
2022/01/23 10:20:06;;;;;;;5.50;3.53;;;17.20;54.60;;;;;;5065392;28;46989;-75
2022/01/23 10:22:36;;;;;;;4.65;3.22;;;17.20;54.00;;;;;;5065273;28;45202;-75
2022/01/23 10:25:08;;;;;;;5.68;3.55;;;17.20;53.70;;;;;;5060319;28;45237;-75
2022/01/23 10:27:55;;;;;;;5.28;3.67;;;17.30;54.00;;;;;;5065988;28;45496;-75
2022/01/23 10:30:26;;;;;;;4.03;3.13;;;17.30;54.10;;;;;;5066789;28;47402;-75
2022/01/23 10:33:06;;;;;;;4.53;3.33;;;17.30;53.70;;;;;;5058632;28;45219;-76
2022/01/23 10:35:34;;;;;;;4.38;3.20;;;17.20;54.00;;;;;;5058801;28;45241;-76
2022/01/23 10:38:13;;;;;;;4.05;2.95;;;17.30;54.30;;;;;;5066074;28;45860;-76
2022/01/23 10:40:49;;;;;;;3.67;3.15;;;17.20;54.00;;;;;;5065178;28;47626;-76
2022/01/23 10:48:47;;;;;;;4.10;2.85;;;17.20;54.20;;;;;;5067606;28;45231;-76
2022/01/23 10:51:26;;;;;;;3.10;2.63;;;17.20;54.30;;;;;;5066752;28;48133;-77
2022/01/23 10:54:16;;;;;;;4.50;3.20;;;17.20;54.00;;;;;;5077156;28;45268;-76
2022/01/23 10:56:59;;;;;;;4.13;3.00;;;17.20;54.00;;;;;;5051543;28;45269;-76
2022/01/23 10:59:27;;;;;;;5.28;3.80;;;17.20;54.00;;;;;;5066556;28;45386;-75
2022/01/23 11:02:04;;;;;;;5.40;3.70;;;17.20;54.00;;;;;;5067964;28;45487;-76
2022/01/23 11:04:34;;;;;;;5.43;3.40;;;17.20;53.90;;;;;;5055462;28;45226;-75
2022/01/23 11:07:03;;;;;;;3.95;2.92;;;17.30;54.00;;;;;;5067545;28;45372;-75
2022/01/23 11:09:33;;;;;;;4.38;3.40;;;17.30;54.30;;;;;;5070319;28;45501;-76
2022/01/23 11:12:04;;;;;;;3.30;2.70;;;17.20;55.90;;;;;;5068925;28;47876;-75
2022/01/23 11:17:23;;;;;;;4.15;2.95;;;17.20;56.90;;;;;;5069057;28;45227;-75
2022/01/23 11:19:55;;;;;;;5.22;3.25;;;17.20;56.20;;;;;;5069071;28;45449;-75
2022/01/23 11:22:24;;;;;;;4.22;3.35;;;17.20;55.60;;;;;;5069453;28;45348;-75
2022/01/23 11:24:53;;;;;;;4.22;3.28;;;17.30;55.10;;;;;;5069627;28;46159;-76
2022/01/23 11:27:23;;;;;;;3.83;2.70;;;17.20;55.30;;;;;;5067860;28;45368;-76
2022/01/23 11:29:58;;;;;;;4.25;2.83;;;17.20;55.90;;;;;;5063766;28;45253;-76
2022/01/23 11:32:29;;;;;;;4.00;3.17;;;17.20;56.50;;;;;;5069168;28;45250;-76
2022/01/23 11:35:05;;;;;;;6.03;2.92;;;17.20;56.70;;;;;;5069351;28;45455;-77
2022/01/23 11:37:33;;;;;;;6.70;2.80;;;17.30;57.00;;;;;;5069164;28;45312;-76
2022/01/23 11:40:08;;;;;;;5.90;3.20;;;17.30;56.80;;;;;;5069241;28;45437;-77
2022/01/23 11:53:42;;;;;;;3.35;2.40;;;17.60;56.90;;;;;;5064526;28;45165;-76
2022/01/23 11:53:56;;;;;;;3.25;2.25;;;17.60;56.30;;;;;;5065341;28;45577;-77
2022/01/23 11:56:42;;;;;;;3.25;2.05;;;17.70;56.60;;;;;;5065043;28;45278;-76
2022/01/23 11:59:32;;;;;;;3.10;2.08;;;17.70;56.10;;;;;;5058212;28;45401;-76
2022/01/23 12:05:24;;;;;;;3.40;2.38;;;17.70;56.80;;;;;;5055799;28;45492;-76
2022/01/23 12:08:33;;;;;;;4.88;2.33;;;17.70;56.90;;;;;;5061088;28;45908;-76
2022/01/23 12:17:17;;;;;;;3.53;2.10;;;17.70;57.10;;;;;;5066453;28;45186;-77
2022/01/23 12:19:50;;;;;;;3.15;2.00;;;17.70;57.20;;;;;;5069694;28;45185;-76
2022/01/23 12:22:30;;;;;;;2.88;1.90;;;17.70;57.20;;;;;;5069103;28;45378;-77
2022/01/23 12:25:00;;;;;;;3.17;2.15;;;17.70;57.30;;;;;;5067701;28;45482;-76
2022/01/23 12:27:28;;;;;;;2.67;2.20;;;17.80;57.20;;;;;;5068873;28;46247;-76
2022/01/23 12:30:10;;;;;;;2.97;2.38;;;17.80;57.20;;;;;;5066027;28;45211;-76
2022/01/23 12:32:37;;;;;;;5.03;2.15;;;17.80;57.20;;;;;;5058546;28;45248;-76
2022/01/23 12:35:06;;;;;;;3.47;1.90;;;17.80;57.10;;;;;;5059966;28;45247;-77
2022/01/23 12:38:08;;;;;;;2.60;1.90;;;17.80;57.10;;;;;;5066588;28;48410;-76
2022/01/23 12:40:37;;;;;;;4.07;1.95;;;17.70;57.20;;;;;;5064170;28;45254;-77
2022/01/23 12:43:06;;;;;;;3.38;1.67;;;17.70;57.20;;;;;;5068688;28;45253;-77
2022/01/23 12:45:56;;;;;;;3.03;2.00;;;17.70;57.30;;;;;;5061884;28;45285;-76
2022/01/23 12:48:40;;;;;;;4.15;1.60;;;17.70;57.50;;;;;;5067798;28;46174;-76
2022/01/23 12:51:09;;;;;;;3.00;2.05;;;17.70;57.40;;;;;;5067757;28;45252;-76
2022/01/23 12:53:37;;;;;;;2.60;2.08;;;17.70;57.30;;;;;;5068626;28;45420;-76
2022/01/23 12:56:06;;;;;;;3.00;1.67;;;17.70;57.30;;;;;;5066683;28;45345;-76
2022/01/23 12:58:33;;;;;;;3.33;1.80;;;17.70;57.50;;;;;;5060566;28;46478;-77
2022/01/23 13:01:04;;;;;;;2.53;1.90;;;17.70;57.60;;;;;;5063172;28;45332;-76
2022/01/23 13:03:31;;;;;;;3.45;1.70;;;17.70;57.60;;;;;;5063454;28;45289;-76
2022/01/23 13:05:58;;;;;;;2.60;1.65;;;17.70;57.80;;;;;;5062727;28;45358;-76
2022/01/23 13:08:28;;;;;;;2.83;1.98;;;17.70;57.60;;;;;;5049705;28;45484;-77
2022/01/23 13:11:23;;;;;;;3.20;2.20;;;17.70;57.70;;;;;;5064943;28;46048;-76
2022/01/23 13:13:59;;;;;;;3.30;1.80;;;17.70;57.70;;;;;;5064858;28;45444;-78
2022/01/23 13:16:37;;;;;;;2.65;1.70;;;17.70;57.60;;;;;;5065647;28;45521;-77
2022/01/23 13:19:23;;;;;;;3.00;1.83;;;17.70;57.60;;;;;;5068026;28;45243;-77
2022/01/23 13:28:24;;;;;;;2.33;1.70;;;17.70;57.70;;;;;;5068857;28;45194;-77
2022/01/23 13:30:46;;;;;;;2.90;1.55;;;17.70;57.70;;;;;;5068715;28;45322;-76
2022/01/23 13:33:20;;;;;;;3.35;1.65;;;17.70;57.70;;;;;;5068317;28;45233;-77
2022/01/23 13:35:51;;;;;;;2.42;1.40;;;17.70;57.70;;;;;;5069017;28;45243;-77
2022/01/23 13:38:19;;;;;;;2.45;1.65;;;17.70;57.70;;;;;;5067195;28;45351;-76
2022/01/23 13:40:56;;;;;;;2.50;1.85;;;17.70;57.70;;;;;;5068838;28;45788;-77
2022/01/23 13:52:09;;;;;;;2.30;1.63;;;17.80;57.50;;;;;;5005823;28;45243;-76
2022/01/23 14:00:24;;;;;;;1.92;1.48;;;17.80;57.50;;;;;;5005478;28;45559;-76
2022/01/23 14:02:51;;;;;;;2.20;1.52;;;17.80;57.60;;;;;;5000418;28;46296;-77
2022/01/23 14:05:22;;;;;;;2.10;1.63;;;17.80;57.60;;;;;;5025757;28;45199;-76
2022/01/23 14:07:51;;;;;;;1.90;1.38;;;17.70;57.60;;;;;;5067719;28;45298;-76
2022/01/23 14:10:21;;;;;;;1.90;1.42;;;17.70;57.50;;;;;;5067606;28;45443;-76
2022/01/23 14:12:52;;;;;;;2.45;1.50;;;17.70;57.60;;;;;;5067765;28;45160;-77
2022/01/23 14:15:20;;;;;;;2.08;1.42;;;17.80;57.70;;;;;;5066422;28;45615;-76
2022/01/23 14:17:57;;;;;;;2.05;1.58;;;17.80;57.70;;;;;;5066702;28;45247;-77
2022/01/23 14:20:26;;;;;;;2.03;1.55;;;17.80;57.60;;;;;;5047819;28;45467;-77
2022/01/23 14:22:55;;;;;;;3.25;1.65;;;17.80;57.70;;;;;;5066313;28;45288;-76
2022/01/23 14:25:24;;;;;;;2.35;1.60;;;17.80;57.50;;;;;;5067409;28;45311;-76
2022/01/23 14:28:03;;;;;;;2.40;1.60;;;17.80;57.60;;;;;;5066355;28;45333;-76
2022/01/23 14:30:30;;;;;;;1.55;1.30;;;17.80;57.50;;;;;;5067007;28;45241;-76
2022/01/23 14:33:05;;;;;;;3.50;1.70;;;17.80;57.60;;;;;;5067522;28;45412;-76
2022/01/23 14:35:35;;;;;;;2.45;1.55;;;17.80;57.50;;;;;;5067594;28;45207;-76
2022/01/23 14:38:11;;;;;;;1.75;1.40;;;17.80;57.50;;;;;;5070765;28;45284;-76
2022/01/23 14:40:39;;;;;;;1.85;1.50;;;17.80;57.40;;;;;;5071319;28;45319;-76
2022/01/23 14:43:08;;;;;;;1.42;1.33;;;17.80;57.50;;;;;;5060316;28;46960;-76
2022/01/23 14:45:40;;;;;;;1.98;1.58;;;17.80;57.50;;;;;;5050724;28;45230;-77
2022/01/23 14:48:08;;;;;;;2.55;1.50;;;17.80;57.50;;;;;;5050672;28;45449;-77
2022/01/23 14:50:39;;;;;;;2.13;1.42;;;17.80;57.50;;;;;;5051027;28;45145;-77
2022/01/23 14:53:08;;;;;;;2.90;1.60;;;17.80;57.40;;;;;;5069556;28;46463;-77
2022/01/23 14:55:36;;;;;;;2.55;1.73;;;17.80;57.50;;;;;;5091109;28;45251;-77
2022/01/23 14:58:04;;;;;;;1.90;1.50;;;17.70;57.40;;;;;;5070430;28;45257;-76
2022/01/23 15:00:32;;;;;;;1.63;1.35;;;17.80;57.60;;;;;;5070907;28;45155;-76
2022/01/23 15:03:02;;;;;;;2.30;1.50;;;17.80;57.50;;;;;;5070799;28;45688;-76
2022/01/23 15:05:31;;;;;;;1.83;1.50;;;17.80;57.50;;;;;;5068302;28;45223;-76
2022/01/23 15:08:00;;;;;;;1.42;1.27;;;17.80;57.40;;;;;;5069446;28;45327;-76
2022/01/23 15:10:27;;;;;;;1.98;1.50;;;17.80;57.40;;;;;;5070612;28;45488;-76
2022/01/23 15:12:55;;;;;;;2.42;1.42;;;17.80;57.40;;;;;;5069898;28;46200;-76
2022/01/23 15:15:21;;;;;;;2.28;1.65;;;17.80;57.50;;;;;;5069819;28;45375;-76
2022/01/23 15:17:48;;;;;;;2.30;1.50;;;17.80;57.40;;;;;;5070485;28;45129;-76
2022/01/23 15:20:16;;;;;;;2.92;1.50;;;17.80;57.50;;;;;;5070684;28;45366;-76
2022/01/23 15:22:43;;;;;;;2.50;1.55;;;17.80;57.40;;;;;;5069960;28;46784;-76
2022/01/23 15:25:13;;;;;;;1.90;1.40;;;17.80;57.40;;;;;;5070430;28;45210;-76
2022/01/23 15:27:40;;;;;;;2.03;1.50;;;17.80;57.40;;;;;;5070122;28;45305;-76
2022/01/23 15:30:09;;;;;;;2.00;1.40;;;17.80;57.40;;;;;;5067187;28;45346;-76
2022/01/23 15:32:36;;;;;;;4.90;1.60;;;17.70;57.40;;;;;;5060528;28;45973;-77
2022/01/23 15:35:04;;;;;;;2.50;1.67;;;17.70;57.60;;;;;;5065455;28;45269;-76
2022/01/23 15:37:31;;;;;;;2.13;1.73;;;17.70;57.70;;;;;;5061006;28;45563;-76
2022/01/23 15:39:58;;;;;;;3.40;1.85;;;17.70;57.70;;;;;;5067468;28;45501;-76
2022/01/23 15:42:26;;;;;;;2.88;1.92;;;17.70;57.80;;;;;;5065311;28;46427;-76
2022/01/23 15:44:53;;;;;;;2.05;1.80;;;17.60;57.80;;;;;;5058301;28;45347;-76
2022/01/23 15:47:20;;;;;;;2.03;1.80;;;17.70;57.90;;;;;;5055822;28;45442;-75
2022/01/23 15:49:47;;;;;;;2.95;2.03;;;17.60;57.70;;;;;;5054592;28;45544;-77
2022/01/23 15:52:14;;;;;;;5.95;2.15;;;17.70;57.70;;;;;;5059529;28;46237;-76